Terminal Aerodrome Forecast
Issued by NWS

Home | Current Version | Previous Version | Graphics & Text | Print | Product List | Glossary On
Versions: 1 2 3 4 5 6 7 8 9 10 11 12 13 14 15
000
FTUS43 KBIS 260625 AAA
TAFMOT
TAF AMD
KMOT 260625Z 2606/2706 06007KT P6SM -RA OVC026
     FM260900 06007KT P6SM -DZ OVC015
     FM261700 08010KT P6SM OVC030
     FM261900 08010KT P6SM OVC045
     FM270200 07007KT P6SM OVC025=

USA.gov is the U.S. government's official web portal to all federal, state and local government web resources and services.